sensor_id;sensor_type;location;lat;lon;timestamp;pressure;altitude;pressure_sealevel;temperature;humidity
64844;BME280;51310;52.198;5.422;2023-04-23T00:00:08;100638.03;;;5.99;100.00
64844;BME280;51310;52.198;5.422;2023-04-23T00:02:38;100635.31;;;5.98;100.00
64844;BME280;51310;52.198;5.422;2023-04-23T00:05:06;100633.31;;;5.95;100.00
64844;BME280;51310;52.198;5.422;2023-04-23T00:07:33;100628.56;;;5.91;100.00
64844;BME280;51310;52.198;5.422;2023-04-23T00:10:00;100626.91;;;5.91;100.00
64844;BME280;51310;52.198;5.422;2023-04-23T00:12:28;100630.06;;;5.89;100.00
64844;BME280;51310;52.198;5.422;2023-04-23T00:14:55;100633.94;;;5.85;100.00
64844;BME280;51310;52.198;5.422;2023-04-23T00:17:20;100625.34;;;5.85;100.00
64844;BME280;51310;52.198;5.422;2023-04-23T00:19:46;100631.38;;;5.85;100.00
64844;BME280;51310;52.198;5.422;2023-04-23T00:22:13;100634.47;;;5.83;100.00
64844;BME280;51310;52.198;5.422;2023-04-23T00:24:42;100639.56;;;5.83;100.00
64844;BME280;51310;52.198;5.422;2023-04-23T00:27:08;100641.22;;;5.82;100.00
64844;BME280;51310;52.198;5.422;2023-04-23T00:29:34;100639.19;;;5.87;100.00
64844;BME280;51310;52.198;5.422;2023-04-23T00:32:00;100621.16;;;5.85;100.00
64844;BME280;51310;52.198;5.422;2023-04-23T00:34:26;100627.16;;;5.86;100.00
64844;BME280;51310;52.198;5.422;2023-04-23T00:36:52;100617.84;;;5.86;100.00
64844;BME280;51310;52.198;5.422;2023-04-23T00:39:17;100617.28;;;5.89;100.00
64844;BME280;51310;52.198;5.422;2023-04-23T00:41:43;100612.69;;;5.93;100.00
64844;BME280;51310;52.198;5.422;2023-04-23T00:44:09;100609.22;;;5.93;100.00
64844;BME280;51310;52.198;5.422;2023-04-23T00:46:38;100604.69;;;5.90;100.00
64844;BME280;51310;52.198;5.422;2023-04-23T00:49:04;100609.78;;;5.90;100.00
64844;BME280;51310;52.198;5.422;2023-04-23T00:51:30;100596.28;;;5.91;100.00
64844;BME280;51310;52.198;5.422;2023-04-23T00:53:59;100605.00;;;5.93;100.00
64844;BME280;51310;52.198;5.422;2023-04-23T00:56:26;100597.34;;;5.93;100.00
64844;BME280;51310;52.198;5.422;2023-04-23T00:58:52;100600.47;;;5.91;100.00
64844;BME280;51310;52.198;5.422;2023-04-23T01:01:22;100594.13;;;5.87;100.00
64844;BME280;51310;52.198;5.422;2023-04-23T01:03:50;100594.13;;;5.87;100.00
64844;BME280;51310;52.198;5.422;2023-04-23T01:06:17;100597.03;;;5.90;100.00
64844;BME280;51310;52.198;5.422;2023-04-23T01:08:45;100589.00;;;5.87;100.00
64844;BME280;51310;52.198;5.422;2023-04-23T01:11:15;100590.50;;;5.85;100.00
64844;BME280;51310;52.198;5.422;2023-04-23T01:13:42;100587.97;;;5.85;100.00
64844;BME280;51310;52.198;5.422;2023-04-23T01:16:09;100592.63;;;5.89;100.00
64844;BME280;51310;52.198;5.422;2023-04-23T01:18:35;100583.91;;;5.87;100.00
64844;BME280;51310;52.198;5.422;2023-04-23T01:21:04;100582.66;;;5.84;100.00
64844;BME280;51310;52.198;5.422;2023-04-23T01:23:30;100575.91;;;5.84;100.00
64844;BME280;51310;52.198;5.422;2023-04-23T01:25:56;100572.84;;;5.80;100.00
64844;BME280;51310;52.198;5.422;2023-04-23T01:28:23;100574.66;;;5.81;100.00
64844;BME280;51310;52.198;5.422;2023-04-23T01:30:49;100572.47;;;5.84;100.00
64844;BME280;51310;52.198;5.422;2023-04-23T01:33:16;100563.31;;;5.86;100.00
64844;BME280;51310;52.198;5.422;2023-04-23T01:35:43;100566.94;;;5.88;100.00
64844;BME280;51310;52.198;5.422;2023-04-23T01:38:10;100564.22;;;5.86;100.00
64844;BME280;51310;52.198;5.422;2023-04-23T01:40:37;100554.00;;;5.86;100.00
64844;BME280;51310;52.198;5.422;2023-04-23T01:43:04;100556.56;;;5.86;100.00
64844;BME280;51310;52.198;5.422;2023-04-23T01:45:31;100551.63;;;5.88;100.00
64844;BME280;51310;52.198;5.422;2023-04-23T01:48:01;100554.31;;;5.89;100.00
64844;BME280;51310;52.198;5.422;2023-04-23T01:50:27;100554.47;;;5.98;100.00
64844;BME280;51310;52.198;5.422;2023-04-23T01:52:54;100556.78;;;6.04;100.00
64844;BME280;51310;52.198;5.422;2023-04-23T01:55:20;100556.56;;;6.09;100.00
64844;BME280;51310;52.198;5.422;2023-04-23T01:57:46;100549.16;;;6.20;100.00
64844;BME280;51310;52.198;5.422;2023-04-23T02:00:13;100553.72;;;6.22;100.00
64844;BME280;51310;52.198;5.422;2023-04-23T02:02:42;100548.16;;;6.26;100.00
64844;BME280;51310;52.198;5.422;2023-04-23T02:05:12;100549.59;;;6.31;100.00
64844;BME280;51310;52.198;5.422;2023-04-23T02:07:39;100545.19;;;6.30;100.00
64844;BME280;51310;52.198;5.422;2023-04-23T02:10:05;100543.00;;;6.33;100.00
64844;BME280;51310;52.198;5.422;2023-04-23T02:12:32;100544.56;;;6.40;100.00
64844;BME280;51310;52.198;5.422;2023-04-23T02:14:58;100537.06;;;6.42;100.00
64844;BME280;51310;52.198;5.422;2023-04-23T02:17:23;100536.72;;;6.39;100.00
64844;BME280;51310;52.198;5.422;2023-04-23T02:19:49;100542.25;;;6.34;100.00
64844;BME280;51310;52.198;5.422;2023-04-23T02:22:16;100532.28;;;6.29;100.00
64844;BME280;51310;52.198;5.422;2023-04-23T02:24:42;100537.22;;;6.27;100.00
64844;BME280;51310;52.198;5.422;2023-04-23T02:27:09;100525.50;;;6.29;100.00
64844;BME280;51310;52.198;5.422;2023-04-23T02:29:35;100529.63;;;6.36;100.00
64844;BME280;51310;52.198;5.422;2023-04-23T02:32:02;100523.94;;;6.39;100.00
64844;BME280;51310;52.198;5.422;2023-04-23T02:34:29;100530.63;;;6.45;100.00
64844;BME280;51310;52.198;5.422;2023-04-23T02:36:54;100523.53;;;6.43;100.00
64844;BME280;51310;52.198;5.422;2023-04-23T02:39:20;100519.50;;;6.45;100.00
64844;BME280;51310;52.198;5.422;2023-04-23T02:41:47;100516.03;;;6.44;100.00
64844;BME280;51310;52.198;5.422;2023-04-23T02:44:12;100516.94;;;6.45;100.00
64844;BME280;51310;52.198;5.422;2023-04-23T02:46:38;100521.31;;;6.46;100.00
64844;BME280;51310;52.198;5.422;2023-04-23T02:49:04;100524.44;;;6.43;100.00
64844;BME280;51310;52.198;5.422;2023-04-23T02:51:31;100523.72;;;6.44;100.00
64844;BME280;51310;52.198;5.422;2023-04-23T02:53:57;100516.22;;;6.46;100.00
64844;BME280;51310;52.198;5.422;2023-04-23T02:56:23;100508.84;;;6.49;100.00
64844;BME280;51310;52.198;5.422;2023-04-23T02:58:49;100520.56;;;6.47;100.00
64844;BME280;51310;52.198;5.422;2023-04-23T03:01:15;100516.22;;;6.46;100.00
64844;BME280;51310;52.198;5.422;2023-04-23T03:03:41;100516.94;;;6.45;100.00
64844;BME280;51310;52.198;5.422;2023-04-23T03:06:07;100518.59;;;6.44;100.00
64844;BME280;51310;52.198;5.422;2023-04-23T03:08:33;100521.31;;;6.46;100.00
64844;BME280;51310;52.198;5.422;2023-04-23T03:10:59;100517.84;;;6.45;100.00
64844;BME280;51310;52.198;5.422;2023-04-23T03:13:25;100511.50;;;6.42;100.00
64844;BME280;51310;52.198;5.422;2023-04-23T03:15:52;100524.03;;;6.47;100.00
64844;BME280;51310;52.198;5.422;2023-04-23T03:18:19;100519.09;;;6.49;100.00
64844;BME280;51310;52.198;5.422;2023-04-23T03:20:45;100512.47;;;6.51;100.00
64844;BME280;51310;52.198;5.422;2023-04-23T03:23:11;100515.94;;;6.51;100.00
64844;BME280;51310;52.198;5.422;2023-04-23T03:25:37;100518.84;;;6.54;100.00
64844;BME280;51310;52.198;5.422;2023-04-23T03:28:03;100513.88;;;6.56;100.00
64844;BME280;51310;52.198;5.422;2023-04-23T03:30:30;100522.88;;;6.52;100.00
64844;BME280;51310;52.198;5.422;2023-04-23T03:32:56;100517.00;;;6.53;100.00
64844;BME280;51310;52.198;5.422;2023-04-23T03:35:25;100510.81;;;6.51;100.00
64844;BME280;51310;52.198;5.422;2023-04-23T03:37:51;100497.63;;;6.55;100.00
64844;BME280;51310;52.198;5.422;2023-04-23T03:40:18;100498.22;;;6.53;100.00
64844;BME280;51310;52.198;5.422;2023-04-23T03:42:44;100503.91;;;6.50;100.00
64844;BME280;51310;52.198;5.422;2023-04-23T03:45:10;100501.19;;;6.49;100.00
64844;BME280;51310;52.198;5.422;2023-04-23T03:47:38;100501.59;;;6.45;100.00
64844;BME280;51310;52.198;5.422;2023-04-23T03:50:06;100504.16;;;6.45;100.00
64844;BME280;51310;52.198;5.422;2023-04-23T03:52:32;100503.50;;;6.39;100.00
64844;BME280;51310;52.198;5.422;2023-04-23T03:54:57;100494.84;;;6.29;100.00
64844;BME280;51310;52.198;5.422;2023-04-23T03:57:23;100502.16;;;6.26;100.00
64844;BME280;51310;52.198;5.422;2023-04-23T03:59:49;100502.75;;;6.24;100.00
64844;BME280;51310;52.198;5.422;2023-04-23T04:02:15;100496.25;;;6.19;100.00
64844;BME280;51310;52.198;5.422;2023-04-23T04:04:41;100493.69;;;6.19;100.00
64844;BME280;51310;52.198;5.422;2023-04-23T04:07:07;100497.94;;;6.11;100.00
64844;BME280;51310;52.198;5.422;2023-04-23T04:09:37;100497.47;;;6.06;100.00
64844;BME280;51310;52.198;5.422;2023-04-23T04:12:04;100490.56;;;6.05;100.00
64844;BME280;51310;52.198;5.422;2023-04-23T04:14:31;100492.53;;;6.08;100.00
64844;BME280;51310;52.198;5.422;2023-04-23T04:16:57;100486.34;;;6.06;100.00
64844;BME280;51310;52.198;5.422;2023-04-23T04:19:23;100488.91;;;6.06;100.00
64844;BME280;51310;52.198;5.422;2023-04-23T04:21:49;100486.84;;;6.10;100.00
64844;BME280;51310;52.198;5.422;2023-04-23T04:24:16;100493.78;;;6.11;100.00
64844;BME280;51310;52.198;5.422;2023-04-23T04:26:46;100491.44;;;6.06;100.00
64844;BME280;51310;52.198;5.422;2023-04-23T04:29:12;100485.25;;;6.04;100.00
64844;BME280;51310;52.198;5.422;2023-04-23T04:31:37;100482.00;;;6.05;100.00
64844;BME280;51310;52.198;5.422;2023-04-23T04:34:03;100484.09;;;6.09;100.00
64844;BME280;51310;52.198;5.422;2023-04-23T04:36:29;100483.69;;;6.13;100.00
64844;BME280;51310;52.198;5.422;2023-04-23T04:38:56;100489.22;;;6.09;100.00
64844;BME280;51310;52.198;5.422;2023-04-23T04:41:24;100497.41;;;6.13;100.00
64844;BME280;51310;52.198;5.422;2023-04-23T04:43:53;100492.44;;;6.15;100.00
64844;BME280;51310;52.198;5.422;2023-04-23T04:46:22;100498.13;;;6.12;100.00
64844;BME280;51310;52.198;5.422;2023-04-23T04:48:48;100490.81;;;6.15;100.00
64844;BME280;51310;52.198;5.422;2023-04-23T04:51:14;100487.91;;;6.12;100.00
64844;BME280;51310;52.198;5.422;2023-04-23T04:53:40;100489.75;;;6.13;100.00
64844;BME280;51310;52.198;5.422;2023-04-23T04:56:06;100486.03;;;6.19;100.00
64844;BME280;51310;52.198;5.422;2023-04-23T04:58:32;100497.31;;;6.21;100.00
64844;BME280;51310;52.198;5.422;2023-04-23T05:00:58;100497.63;;;6.24;100.00
64844;BME280;51310;52.198;5.422;2023-04-23T05:03:24;100498.88;;;6.27;100.00
64844;BME280;51310;52.198;5.422;2023-04-23T05:05:52;100501.13;;;6.24;100.00
64844;BME280;51310;52.198;5.422;2023-04-23T05:08:21;100500.03;;;6.22;100.00
64844;BME280;51310;52.198;5.422;2023-04-23T05:10:47;100500.03;;;6.22;100.00
64844;BME280;51310;52.198;5.422;2023-04-23T05:13:15;100491.63;;;6.23;100.00
64844;BME280;51310;52.198;5.422;2023-04-23T05:15:41;100494.84;;;6.29;100.00
64844;BME280;51310;52.198;5.422;2023-04-23T05:18:09;100483.53;;;6.27;100.00
64844;BME280;51310;52.198;5.422;2023-04-23T05:20:36;100493.34;;;6.31;100.00
64844;BME280;51310;52.198;5.422;2023-04-23T05:23:02;100492.44;;;6.47;100.00
64844;BME280;51310;52.198;5.422;2023-04-23T05:25:31;100492.59;;;6.64;100.00
64844;BME280;51310;52.198;5.422;2023-04-23T05:27:58;100490.00;;;6.80;100.00
64844;BME280;51310;52.198;5.422;2023-04-23T05:30:24;100496.41;;;6.92;100.00
64844;BME280;51310;52.198;5.422;2023-04-23T05:32:50;100501.91;;;7.04;100.00
64844;BME280;51310;52.198;5.422;2023-04-23T05:35:16;100492.75;;;7.06;100.00
64844;BME280;51310;52.198;5.422;2023-04-23T05:37:41;100493.59;;;7.23;100.00
64844;BME280;51310;52.198;5.422;2023-04-23T05:40:08;100491.25;;;7.33;100.00
64844;BME280;51310;52.198;5.422;2023-04-23T05:42:35;100495.09;;;7.45;100.00
64844;BME280;51310;52.198;5.422;2023-04-23T05:45:02;100493.47;;;7.54;100.00
64844;BME280;51310;52.198;5.422;2023-04-23T05:47:28;100495.16;;;7.63;100.00
64844;BME280;51310;52.198;5.422;2023-04-23T05:49:54;100497.78;;;7.80;100.00
64844;BME280;51310;52.198;5.422;2023-04-23T05:52:22;100498.09;;;7.92;100.00
64844;BME280;51310;52.198;5.422;2023-04-23T05:54:48;100504.94;;;8.09;100.00
64844;BME280;51310;52.198;5.422;2023-04-23T05:57:14;100503.72;;;8.14;100.00
64844;BME280;51310;52.198;5.422;2023-04-23T05:59:39;100502.56;;;8.36;100.00
64844;BME280;51310;52.198;5.422;2023-04-23T06:02:07;100503.22;;;8.43;100.00
64844;BME280;51310;52.198;5.422;2023-04-23T06:04:33;100497.50;;;8.45;100.00
64844;BME280;51310;52.198;5.422;2023-04-23T06:06:59;100490.25;;;8.41;100.00
64844;BME280;51310;52.198;5.422;2023-04-23T06:09:24;100493.25;;;8.46;100.00
64844;BME280;51310;52.198;5.422;2023-04-23T06:11:51;100493.72;;;8.50;100.00
64844;BME280;51310;52.198;5.422;2023-04-23T06:14:17;100489.34;;;8.58;100.00
64844;BME280;51310;52.198;5.422;2023-04-23T06:16:43;100483.63;;;8.52;100.00
64844;BME280;51310;52.198;5.422;2023-04-23T06:19:09;100481.66;;;8.58;100.00
64844;BME280;51310;52.198;5.422;2023-04-23T06:21:34;100479.53;;;8.62;100.00
64844;BME280;51310;52.198;5.422;2023-04-23T06:24:00;100471.22;;;8.65;100.00
64844;BME280;51310;52.198;5.422;2023-04-23T06:26:26;100461.75;;;8.64;100.00
64844;BME280;51310;52.198;5.422;2023-04-23T06:28:51;100459.47;;;8.67;100.00
64844;BME280;51310;52.198;5.422;2023-04-23T06:31:17;100466.53;;;8.70;100.00
64844;BME280;51310;52.198;5.422;2023-04-23T06:33:43;100460.06;;;8.73;100.00
64844;BME280;51310;52.198;5.422;2023-04-23T06:36:09;100455.81;;;8.82;100.00
64844;BME280;51310;52.198;5.422;2023-04-23T06:38:36;100451.44;;;8.90;100.00
64844;BME280;51310;52.198;5.422;2023-04-23T06:41:03;100451.28;;;8.97;100.00
64844;BME280;51310;52.198;5.422;2023-04-23T06:43:29;100444.31;;;9.05;100.00
64844;BME280;51310;52.198;5.422;2023-04-23T06:45:55;100441.41;;;9.11;100.00
64844;BME280;51310;52.198;5.422;2023-04-23T06:48:21;100443.22;;;9.20;100.00
64844;BME280;51310;52.198;5.422;2023-04-23T06:50:47;100437.59;;;9.33;100.00
64844;BME280;51310;52.198;5.422;2023-04-23T06:53:14;100437.56;;;9.42;100.00
64844;BME280;51310;52.198;5.422;2023-04-23T06:55:40;100431.31;;;9.49;100.00
64844;BME280;51310;52.198;5.422;2023-04-23T06:58:05;100427.19;;;9.59;100.00
64844;BME280;51310;52.198;5.422;2023-04-23T07:00:34;100423.69;;;9.68;100.00
64844;BME280;51310;52.198;5.422;2023-04-23T07:03:00;100409.72;;;9.74;100.00
64844;BME280;51310;52.198;5.422;2023-04-23T07:05:25;100416.75;;;9.85;100.00
64844;BME280;51310;52.198;5.422;2023-04-23T07:07:51;100404.91;;;9.96;100.00
64844;BME280;51310;52.198;5.422;2023-04-23T07:10:18;100400.75;;;10.07;100.00
64844;BME280;51310;52.198;5.422;2023-04-23T07:12:44;100399.78;;;10.15;100.00
64844;BME280;51310;52.198;5.422;2023-04-23T07:15:10;100405.44;;;10.21;100.00
64844;BME280;51310;52.198;5.422;2023-04-23T07:17:36;100407.50;;;10.34;100.00
64844;BME280;51310;52.198;5.422;2023-04-23T07:20:02;100398.31;;;10.46;100.00
64844;BME280;51310;52.198;5.422;2023-04-23T07:22:33;100399.03;;;10.54;100.00
64844;BME280;51310;52.198;5.422;2023-04-23T07:25:00;100393.66;;;10.61;100.00
64844;BME280;51310;52.198;5.422;2023-04-23T07:27:26;100391.53;;;10.76;100.00
64844;BME280;51310;52.198;5.422;2023-04-23T07:29:52;100387.97;;;10.84;100.00
64844;BME280;51310;52.198;5.422;2023-04-23T07:32:17;100390.31;;;10.92;100.00
64844;BME280;51310;52.198;5.422;2023-04-23T07:34:43;100378.38;;;11.02;100.00
64844;BME280;51310;52.198;5.422;2023-04-23T07:37:09;100380.06;;;11.12;100.00
64844;BME280;51310;52.198;5.422;2023-04-23T07:39:35;100381.78;;;11.22;100.00
64844;BME280;51310;52.198;5.422;2023-04-23T07:42:00;100383.72;;;11.35;100.00
64844;BME280;51310;52.198;5.422;2023-04-23T07:44:29;100370.50;;;11.40;100.00
64844;BME280;51310;52.198;5.422;2023-04-23T07:46:55;100374.59;;;11.48;100.00
64844;BME280;51310;52.198;5.422;2023-04-23T07:49:20;100369.31;;;11.57;100.00
64844;BME280;51310;52.198;5.422;2023-04-23T07:51:47;100360.31;;;11.62;100.00
64844;BME280;51310;52.198;5.422;2023-04-23T07:54:13;100360.44;;;11.74;100.00
64844;BME280;51310;52.198;5.422;2023-04-23T07:56:39;100349.09;;;11.82;100.00
64844;BME280;51310;52.198;5.422;2023-04-23T07:59:04;100350.91;;;11.94;100.00
64844;BME280;51310;52.198;5.422;2023-04-23T08:01:32;100351.28;;;12.08;100.00
64844;BME280;51310;52.198;5.422;2023-04-23T08:03:58;100349.34;;;12.16;100.00
64844;BME280;51310;52.198;5.422;2023-04-23T08:06:26;100351.16;;;12.17;100.00
64844;BME280;51310;52.198;5.422;2023-04-23T08:08:52;100360.44;;;12.25;100.00
64844;BME280;51310;52.198;5.422;2023-04-23T08:11:20;100358.09;;;12.28;100.00
64844;BME280;51310;52.198;5.422;2023-04-23T08:13:46;100352.91;;;12.39;100.00
64844;BME280;51310;52.198;5.422;2023-04-23T08:16:12;100346.03;;;12.49;100.00
64844;BME280;51310;52.198;5.422;2023-04-23T08:18:37;100344.59;;;12.53;100.00
64844;BME280;51310;52.198;5.422;2023-04-23T08:21:03;100343.28;;;12.58;100.00
64844;BME280;51310;52.198;5.422;2023-04-23T08:23:29;100340.38;;;12.76;100.00
64844;BME280;51310;52.198;5.422;2023-04-23T08:25:55;100342.78;;;12.84;100.00
64844;BME280;51310;52.198;5.422;2023-04-23T08:28:20;100340.56;;;12.89;100.00
64844;BME280;51310;52.198;5.422;2023-04-23T08:30:46;100335.53;;;12.90;100.00
64844;BME280;51310;52.198;5.422;2023-04-23T08:33:13;100328.31;;;13.08;100.00
64844;BME280;51310;52.198;5.422;2023-04-23T08:35:39;100331.91;;;13.10;100.00
64844;BME280;51310;52.198;5.422;2023-04-23T08:38:04;100322.88;;;13.16;100.00
64844;BME280;51310;52.198;5.422;2023-04-23T08:40:31;100334.13;;;13.28;100.00
64844;BME280;51310;52.198;5.422;2023-04-23T08:43:02;100324.44;;;13.36;100.00
64844;BME280;51310;52.198;5.422;2023-04-23T08:45:31;100322.31;;;13.42;100.00
64844;BME280;51310;52.198;5.422;2023-04-23T08:48:00;100321.44;;;13.53;100.00
64844;BME280;51310;52.198;5.422;2023-04-23T08:50:28;100320.44;;;13.63;100.00
64844;BME280;51310;52.198;5.422;2023-04-23T08:52:56;100311.25;;;13.66;100.00
64844;BME280;51310;52.198;5.422;2023-04-23T08:55:23;100317.03;;;13.86;100.00
64844;BME280;51310;52.198;5.422;2023-04-23T08:57:50;100316.69;;;13.81;100.00
64844;BME280;51310;52.198;5.422;2023-04-23T09:00:19;100316.59;;;13.91;100.00
64844;BME280;51310;52.198;5.422;2023-04-23T09:02:47;100308.16;;;14.06;100.00
64844;BME280;51310;52.198;5.422;2023-04-23T09:05:14;100309.31;;;14.21;100.00
64844;BME280;51310;52.198;5.422;2023-04-23T09:07:40;100308.72;;;14.37;100.00
64844;BME280;51310;52.198;5.422;2023-04-23T09:10:12;100311.91;;;14.56;100.00
64844;BME280;51310;52.198;5.422;2023-04-23T09:12:41;100314.38;;;14.55;100.00
64844;BME280;51310;52.198;5.422;2023-04-23T09:15:09;100314.69;;;14.60;100.00
64844;BME280;51310;52.198;5.422;2023-04-23T09:17:39;100308.38;;;14.68;100.00
64844;BME280;51310;52.198;5.422;2023-04-23T09:20:09;100309.84;;;14.76;100.00
64844;BME280;51310;52.198;5.422;2023-04-23T09:22:42;100304.66;;;14.76;100.00
64844;BME280;51310;52.198;5.422;2023-04-23T09:25:09;100305.41;;;14.87;100.00
64844;BME280;51310;52.198;5.422;2023-04-23T09:27:37;100312.03;;;14.95;100.00
64844;BME280;51310;52.198;5.422;2023-04-23T09:30:05;100295.81;;;14.97;100.00
64844;BME280;51310;52.198;5.422;2023-04-23T09:32:36;100291.41;;;14.96;100.00
64844;BME280;51310;52.198;5.422;2023-04-23T09:35:05;100292.22;;;14.84;100.00
64844;BME280;51310;52.198;5.422;2023-04-23T09:37:32;100295.81;;;14.86;100.00
64844;BME280;51310;52.198;5.422;2023-04-23T09:40:01;100281.56;;;15.04;100.00
64844;BME280;51310;52.198;5.422;2023-04-23T09:42:29;100286.22;;;15.22;100.00
64844;BME280;51310;52.198;5.422;2023-04-23T09:45:06;100275.41;;;15.27;100.00
64844;BME280;51310;52.198;5.422;2023-04-23T09:47:38;100289.75;;;15.61;100.00
64844;BME280;51310;52.198;5.422;2023-04-23T09:50:05;100284.16;;;15.68;100.00
64844;BME280;51310;52.198;5.422;2023-04-23T09:52:32;100285.44;;;15.73;100.00
64844;BME280;51310;52.198;5.422;2023-04-23T09:55:01;100284.84;;;15.90;100.00
64844;BME280;51310;52.198;5.422;2023-04-23T09:57:27;100280.25;;;15.99;100.00
64844;BME280;51310;52.198;5.422;2023-04-23T09:59:56;100280.06;;;16.10;100.00
64844;BME280;51310;52.198;5.422;2023-04-23T10:02:26;100282.56;;;16.22;100.00
64844;BME280;51310;52.198;5.422;2023-04-23T10:04:53;100279.38;;;16.26;100.00
64844;BME280;51310;52.198;5.422;2023-04-23T10:07:19;100280.34;;;16.41;100.00
64844;BME280;51310;52.198;5.422;2023-04-23T10:09:46;100288.53;;;16.47;100.00
64844;BME280;51310;52.198;5.422;2023-04-23T10:12:13;100277.56;;;16.38;100.00
64844;BME280;51310;52.198;5.422;2023-04-23T10:14:40;100280.47;;;16.16;100.00
64844;BME280;51310;52.198;5.422;2023-04-23T10:17:09;100281.84;;;16.11;100.00
64844;BME280;51310;52.198;5.422;2023-04-23T10:19:38;100289.06;;;16.42;100.00
64844;BME280;51310;52.198;5.422;2023-04-23T10:22:09;100281.56;;;16.46;100.00
64844;BME280;51310;52.198;5.422;2023-04-23T10:24:39;100280.84;;;16.49;100.00
64844;BME280;51310;52.198;5.422;2023-04-23T10:27:11;100276.13;;;16.83;100.00
64844;BME280;51310;52.198;5.422;2023-04-23T10:29:38;100275.84;;;17.07;100.00
64844;BME280;51310;52.198;5.422;2023-04-23T10:32:05;100267.28;;;16.94;100.00
64844;BME280;51310;52.198;5.422;2023-04-23T10:34:32;100267.78;;;16.89;100.00
64844;BME280;51310;52.198;5.422;2023-04-23T10:37:00;100272.13;;;16.61;97.05
64844;BME280;51310;52.198;5.422;2023-04-23T10:39:29;100262.75;;;16.64;99.72
64844;BME280;51310;52.198;5.422;2023-04-23T10:41:57;100263.47;;;16.61;96.60
64844;BME280;51310;52.198;5.422;2023-04-23T10:44:32;100252.91;;;17.14;95.54
64844;BME280;51310;52.198;5.422;2023-04-23T10:46:58;100249.91;;;17.08;95.65
64844;BME280;51310;52.198;5.422;2023-04-23T10:49:30;100239.72;;;16.83;89.94
64844;BME280;51310;52.198;5.422;2023-04-23T10:52:15;100235.00;;;16.77;96.83
64844;BME280;51310;52.198;5.422;2023-04-23T10:55:03;100240.34;;;16.66;96.30
64844;BME280;51310;52.198;5.422;2023-04-23T10:57:29;100243.88;;;16.53;95.56
64844;BME280;51310;52.198;5.422;2023-04-23T10:59:55;100244.81;;;16.40;96.04
64844;BME280;51310;52.198;5.422;2023-04-23T11:02:24;100234.13;;;16.35;96.34
64844;BME280;51310;52.198;5.422;2023-04-23T11:04:56;100234.38;;;16.53;95.00
64844;BME280;51310;52.198;5.422;2023-04-23T11:07:30;100226.69;;;16.55;92.62
64844;BME280;51310;52.198;5.422;2023-04-23T11:09:59;100232.34;;;16.63;92.17
64844;BME280;51310;52.198;5.422;2023-04-23T11:14:58;100223.16;;;16.81;86.96
64844;BME280;51310;52.198;5.422;2023-04-23T11:20:19;100215.72;;;17.30;79.21
64844;BME280;51310;52.198;5.422;2023-04-23T11:22:51;100213.19;;;17.47;81.33
64844;BME280;51310;52.198;5.422;2023-04-23T11:25:23;100213.56;;;17.53;82.35
64844;BME280;51310;52.198;5.422;2023-04-23T11:27:51;100210.88;;;17.81;82.02
64844;BME280;51310;52.198;5.422;2023-04-23T11:30:26;100199.22;;;17.89;80.49
64844;BME280;51310;52.198;5.422;2023-04-23T11:32:55;100202.16;;;17.80;80.89
64844;BME280;51310;52.198;5.422;2023-04-23T11:35:23;100202.78;;;18.06;80.32
64844;BME280;51310;52.198;5.422;2023-04-23T11:37:53;100194.97;;;18.06;77.46
64844;BME280;51310;52.198;5.422;2023-04-23T11:40:21;100192.19;;;18.03;79.77
64844;BME280;51310;52.198;5.422;2023-04-23T11:42:53;100182.78;;;18.21;76.82
64844;BME280;51310;52.198;5.422;2023-04-23T11:45:22;100178.38;;;18.20;74.75
64844;BME280;51310;52.198;5.422;2023-04-23T11:47:54;100184.81;;;18.27;71.12
64844;BME280;51310;52.198;5.422;2023-04-23T11:50:29;100171.53;;;18.06;69.97
64844;BME280;51310;52.198;5.422;2023-04-23T11:53:06;100174.38;;;17.50;71.36
64844;BME280;51310;52.198;5.422;2023-04-23T11:55:33;100173.00;;;17.71;70.09
64844;BME280;51310;52.198;5.422;2023-04-23T11:57:58;100158.41;;;17.58;75.36
64844;BME280;51310;52.198;5.422;2023-04-23T12:00:25;100161.00;;;17.43;73.96
64844;BME280;51310;52.198;5.422;2023-04-23T12:02:56;100159.66;;;17.50;74.70
64844;BME280;51310;52.198;5.422;2023-04-23T12:07:53;100152.97;;;17.70;74.41
64844;BME280;51310;52.198;5.422;2023-04-23T12:10:23;100147.41;;;17.79;73.81
64844;BME280;51310;52.198;5.422;2023-04-23T12:12:52;100144.28;;;17.85;74.58
64844;BME280;51310;52.198;5.422;2023-04-23T12:15:19;100136.69;;;18.04;73.94
64844;BME280;51310;52.198;5.422;2023-04-23T12:18:07;100133.31;;;17.90;72.43
64844;BME280;51310;52.198;5.422;2023-04-23T12:20:33;100131.19;;;17.83;73.07
64844;BME280;51310;52.198;5.422;2023-04-23T12:23:04;100137.81;;;17.93;72.64
64844;BME280;51310;52.198;5.422;2023-04-23T12:25:32;100127.06;;;17.87;70.52
64844;BME280;51310;52.198;5.422;2023-04-23T12:27:59;100128.19;;;17.92;71.63
64844;BME280;51310;52.198;5.422;2023-04-23T12:30:29;100122.41;;;18.12;70.20
64844;BME280;51310;52.198;5.422;2023-04-23T12:33:03;100126.16;;;18.34;67.18
64844;BME280;51310;52.198;5.422;2023-04-23T12:35:43;100124.59;;;18.37;68.34
64844;BME280;51310;52.198;5.422;2023-04-23T12:38:26;100119.31;;;17.88;67.65
64844;BME280;51310;52.198;5.422;2023-04-23T12:40:55;100111.50;;;18.19;68.15
64844;BME280;51310;52.198;5.422;2023-04-23T12:43:22;100110.53;;;18.34;69.58
64844;BME280;51310;52.198;5.422;2023-04-23T12:45:49;100110.69;;;18.37;69.23
64844;BME280;51310;52.198;5.422;2023-04-23T12:48:15;100107.16;;;18.20;68.93
64844;BME280;51310;52.198;5.422;2023-04-23T12:50:41;100098.22;;;18.48;69.11
64844;BME280;51310;52.198;5.422;2023-04-23T12:53:07;100093.91;;;18.64;68.98
64844;BME280;51310;52.198;5.422;2023-04-23T12:55:33;100099.34;;;18.53;68.63